Livonia, New York
Current Conditions -  °F | °C
As of 8:54 AM on Tuesday 27 Jan 2015 (Local Time) from KDSV Reporting Station
Light Snow Light Snow  
Wind Chill: -19°   Ceiling: 1600
Heat Index: -10°   Visibility: 1.5mi
Dew Point: -12°   Wind: 15mph
Humidity: 84%   Direction: 320°NW
Pressure: 29.96"   Gusts: NA
Location:  42.82°N, 77.67°W
Report Text: KDSV 271354Z AUTO 32013KT 1 1/2SM -SN BR OVC016 M10/M12 A2996 RMK AO2 SLP166 P0000 T11001122
Loading
Personal Weather Stations






























Interactive Weather Map New forecast layout! Learn more

10-Day Weather Forecast

Advertisements
Track Severe Weather on mobile